sensor_id;sensor_type;location;lat;lon;timestamp;P1;durP1;ratioP1;P2;durP2;ratioP2
54983;SDS011;40884;53.562;9.940;2023-02-28T00:00:12;5.93;;;1.80;;
54983;SDS011;40884;53.562;9.940;2023-02-28T00:01:13;5.30;;;2.00;;
54983;SDS011;40884;53.562;9.940;2023-02-28T00:02:13;5.23;;;1.80;;
54983;SDS011;40884;53.562;9.940;2023-02-28T00:03:13;3.33;;;1.83;;
54983;SDS011;40884;53.562;9.940;2023-02-28T00:04:13;3.40;;;1.73;;
54983;SDS011;40884;53.562;9.940;2023-02-28T00:05:14;4.93;;;2.00;;
54983;SDS011;40884;53.562;9.940;2023-02-28T00:06:15;3.05;;;1.63;;
54983;SDS011;40884;53.562;9.940;2023-02-28T00:07:15;4.50;;;1.70;;
54983;SDS011;40884;53.562;9.940;2023-02-28T00:08:15;3.90;;;1.50;;
54983;SDS011;40884;53.562;9.940;2023-02-28T00:09:15;3.00;;;1.97;;
54983;SDS011;40884;53.562;9.940;2023-02-28T00:10:19;3.97;;;1.97;;
54983;SDS011;40884;53.562;9.940;2023-02-28T00:11:19;3.47;;;1.70;;
54983;SDS011;40884;53.562;9.940;2023-02-28T00:12:19;3.13;;;1.70;;
54983;SDS011;40884;53.562;9.940;2023-02-28T00:13:20;4.07;;;2.00;;
54983;SDS011;40884;53.562;9.940;2023-02-28T00:14:20;4.40;;;1.83;;
54983;SDS011;40884;53.562;9.940;2023-02-28T00:15:20;4.07;;;1.60;;
54983;SDS011;40884;53.562;9.940;2023-02-28T00:16:21;4.00;;;1.80;;
54983;SDS011;40884;53.562;9.940;2023-02-28T00:17:21;4.50;;;1.90;;
54983;SDS011;40884;53.562;9.940;2023-02-28T00:18:21;4.40;;;1.53;;
54983;SDS011;40884;53.562;9.940;2023-02-28T00:19:21;4.93;;;1.63;;
54983;SDS011;40884;53.562;9.940;2023-02-28T00:20:21;2.80;;;1.57;;
54983;SDS011;40884;53.562;9.940;2023-02-28T00:21:21;3.20;;;1.50;;
54983;SDS011;40884;53.562;9.940;2023-02-28T00:22:22;1.77;;;1.13;;
54983;SDS011;40884;53.562;9.940;2023-02-28T00:23:22;4.40;;;1.40;;
54983;SDS011;40884;53.562;9.940;2023-02-28T00:24:22;4.40;;;1.60;;
54983;SDS011;40884;53.562;9.940;2023-02-28T00:25:23;3.70;;;1.53;;
54983;SDS011;40884;53.562;9.940;2023-02-28T00:26:23;3.25;;;1.88;;
54983;SDS011;40884;53.562;9.940;2023-02-28T00:27:23;4.37;;;2.00;;
54983;SDS011;40884;53.562;9.940;2023-02-28T00:28:23;4.23;;;1.97;;
54983;SDS011;40884;53.562;9.940;2023-02-28T00:29:23;3.10;;;1.63;;
54983;SDS011;40884;53.562;9.940;2023-02-28T00:30:24;4.00;;;1.60;;
54983;SDS011;40884;53.562;9.940;2023-02-28T00:31:24;3.93;;;1.60;;
54983;SDS011;40884;53.562;9.940;2023-02-28T00:32:24;2.83;;;1.47;;
54983;SDS011;40884;53.562;9.940;2023-02-28T00:33:24;3.17;;;1.70;;
54983;SDS011;40884;53.562;9.940;2023-02-28T00:34:24;4.37;;;1.80;;
54983;SDS011;40884;53.562;9.940;2023-02-28T00:35:24;3.40;;;1.40;;
54983;SDS011;40884;53.562;9.940;2023-02-28T00:36:24;3.93;;;1.57;;
54983;SDS011;40884;53.562;9.940;2023-02-28T00:37:25;3.40;;;1.70;;
54983;SDS011;40884;53.562;9.940;2023-02-28T00:38:25;2.23;;;1.40;;
54983;SDS011;40884;53.562;9.940;2023-02-28T00:39:25;2.83;;;1.47;;
54983;SDS011;40884;53.562;9.940;2023-02-28T00:40:25;5.13;;;2.10;;
54983;SDS011;40884;53.562;9.940;2023-02-28T00:41:26;3.33;;;1.70;;
54983;SDS011;40884;53.562;9.940;2023-02-28T00:42:27;2.73;;;1.43;;
54983;SDS011;40884;53.562;9.940;2023-02-28T00:43:27;4.20;;;1.90;;
54983;SDS011;40884;53.562;9.940;2023-02-28T00:44:27;3.37;;;2.03;;
54983;SDS011;40884;53.562;9.940;2023-02-28T00:45:27;3.47;;;1.90;;
54983;SDS011;40884;53.562;9.940;2023-02-28T00:46:27;4.03;;;1.50;;
54983;SDS011;40884;53.562;9.940;2023-02-28T00:47:27;3.30;;;1.63;;
54983;SDS011;40884;53.562;9.940;2023-02-28T00:48:28;3.87;;;1.80;;
54983;SDS011;40884;53.562;9.940;2023-02-28T00:49:28;4.40;;;1.70;;
54983;SDS011;40884;53.562;9.940;2023-02-28T00:50:28;3.40;;;1.70;;
54983;SDS011;40884;53.562;9.940;2023-02-28T00:51:31;5.57;;;2.05;;
54983;SDS011;40884;53.562;9.940;2023-02-28T00:52:31;3.13;;;2.00;;
54983;SDS011;40884;53.562;9.940;2023-02-28T00:53:31;3.83;;;2.03;;
54983;SDS011;40884;53.562;9.940;2023-02-28T00:54:31;3.23;;;1.50;;
54983;SDS011;40884;53.562;9.940;2023-02-28T00:55:32;4.03;;;1.70;;
54983;SDS011;40884;53.562;9.940;2023-02-28T00:56:32;4.13;;;1.63;;
54983;SDS011;40884;53.562;9.940;2023-02-28T00:57:32;3.83;;;1.87;;
54983;SDS011;40884;53.562;9.940;2023-02-28T00:58:32;3.07;;;1.93;;
54983;SDS011;40884;53.562;9.940;2023-02-28T00:59:32;3.40;;;1.93;;
54983;SDS011;40884;53.562;9.940;2023-02-28T01:00:32;2.93;;;1.50;;
54983;SDS011;40884;53.562;9.940;2023-02-28T01:01:32;5.50;;;1.90;;
54983;SDS011;40884;53.562;9.940;2023-02-28T01:02:33;5.90;;;1.77;;
54983;SDS011;40884;53.562;9.940;2023-02-28T01:03:33;4.23;;;1.97;;
54983;SDS011;40884;53.562;9.940;2023-02-28T01:04:33;3.67;;;1.90;;
54983;SDS011;40884;53.562;9.940;2023-02-28T01:05:35;5.28;;;1.88;;
54983;SDS011;40884;53.562;9.940;2023-02-28T01:06:35;4.40;;;2.20;;
54983;SDS011;40884;53.562;9.940;2023-02-28T01:07:35;4.83;;;1.93;;
54983;SDS011;40884;53.562;9.940;2023-02-28T01:08:35;4.83;;;2.47;;
54983;SDS011;40884;53.562;9.940;2023-02-28T01:09:36;5.17;;;2.50;;
54983;SDS011;40884;53.562;9.940;2023-02-28T01:10:36;5.57;;;2.53;;
54983;SDS011;40884;53.562;9.940;2023-02-28T01:11:36;3.73;;;2.30;;
54983;SDS011;40884;53.562;9.940;2023-02-28T01:12:36;3.40;;;2.00;;
54983;SDS011;40884;53.562;9.940;2023-02-28T01:13:36;2.47;;;1.70;;
54983;SDS011;40884;53.562;9.940;2023-02-28T01:14:38;4.00;;;2.22;;
54983;SDS011;40884;53.562;9.940;2023-02-28T01:15:38;5.17;;;2.27;;
54983;SDS011;40884;53.562;9.940;2023-02-28T01:16:40;4.53;;;1.95;;
54983;SDS011;40884;53.562;9.940;2023-02-28T01:17:40;4.03;;;1.87;;
54983;SDS011;40884;53.562;9.940;2023-02-28T01:18:40;3.47;;;2.00;;
54983;SDS011;40884;53.562;9.940;2023-02-28T01:19:41;5.70;;;2.53;;
54983;SDS011;40884;53.562;9.940;2023-02-28T01:20:43;4.80;;;2.58;;
54983;SDS011;40884;53.562;9.940;2023-02-28T01:21:43;4.17;;;2.27;;
54983;SDS011;40884;53.562;9.940;2023-02-28T01:22:46;3.35;;;2.28;;
54983;SDS011;40884;53.562;9.940;2023-02-28T01:23:47;4.87;;;1.90;;
54983;SDS011;40884;53.562;9.940;2023-02-28T01:24:47;2.53;;;2.07;;
54983;SDS011;40884;53.562;9.940;2023-02-28T01:25:47;4.47;;;2.40;;
54983;SDS011;40884;53.562;9.940;2023-02-28T01:26:47;4.03;;;2.10;;
54983;SDS011;40884;53.562;9.940;2023-02-28T01:27:47;4.77;;;2.10;;
54983;SDS011;40884;53.562;9.940;2023-02-28T01:28:48;3.47;;;1.80;;
54983;SDS011;40884;53.562;9.940;2023-02-28T01:29:50;3.77;;;1.90;;
54983;SDS011;40884;53.562;9.940;2023-02-28T01:30:50;3.75;;;1.98;;
54983;SDS011;40884;53.562;9.940;2023-02-28T01:31:50;6.63;;;2.40;;
54983;SDS011;40884;53.562;9.940;2023-02-28T01:32:50;3.33;;;1.77;;
54983;SDS011;40884;53.562;9.940;2023-02-28T01:33:50;3.43;;;1.83;;
54983;SDS011;40884;53.562;9.940;2023-02-28T01:34:50;4.23;;;2.23;;
54983;SDS011;40884;53.562;9.940;2023-02-28T01:35:57;4.67;;;2.17;;
54983;SDS011;40884;53.562;9.940;2023-02-28T01:36:57;3.60;;;1.73;;
54983;SDS011;40884;53.562;9.940;2023-02-28T01:37:57;5.30;;;2.17;;
54983;SDS011;40884;53.562;9.940;2023-02-28T01:38:58;4.23;;;1.70;;
54983;SDS011;40884;53.562;9.940;2023-02-28T01:40:00;4.22;;;2.28;;
54983;SDS011;40884;53.562;9.940;2023-02-28T01:41:00;4.40;;;2.10;;
54983;SDS011;40884;53.562;9.940;2023-02-28T01:42:01;4.40;;;2.00;;
54983;SDS011;40884;53.562;9.940;2023-02-28T01:43:01;3.10;;;1.97;;
54983;SDS011;40884;53.562;9.940;2023-02-28T01:44:03;3.50;;;2.00;;
54983;SDS011;40884;53.562;9.940;2023-02-28T01:45:22;5.32;;;2.00;;
54983;SDS011;40884;53.562;9.940;2023-02-28T01:46:22;4.20;;;2.00;;
54983;SDS011;40884;53.562;9.940;2023-02-28T01:47:22;5.00;;;2.10;;
54983;SDS011;40884;53.562;9.940;2023-02-28T01:48:31;3.97;;;1.90;;
54983;SDS011;40884;53.562;9.940;2023-02-28T01:49:32;4.40;;;1.90;;
54983;SDS011;40884;53.562;9.940;2023-02-28T01:50:33;5.20;;;2.13;;
54983;SDS011;40884;53.562;9.940;2023-02-28T01:51:37;6.90;;;2.50;;
54983;SDS011;40884;53.562;9.940;2023-02-28T01:52:38;6.20;;;2.30;;
54983;SDS011;40884;53.562;9.940;2023-02-28T01:53:42;5.15;;;2.30;;
54983;SDS011;40884;53.562;9.940;2023-02-28T01:54:43;4.05;;;2.10;;
54983;SDS011;40884;53.562;9.940;2023-02-28T01:55:45;4.13;;;2.47;;
54983;SDS011;40884;53.562;9.940;2023-02-28T01:56:48;2.83;;;1.92;;
54983;SDS011;40884;53.562;9.940;2023-02-28T01:57:50;2.80;;;1.85;;
54983;SDS011;40884;53.562;9.940;2023-02-28T01:58:52;4.75;;;2.00;;
54983;SDS011;40884;53.562;9.940;2023-02-28T02:00:53;4.07;;;2.00;;
54983;SDS011;40884;53.562;9.940;2023-02-28T02:01:53;4.90;;;2.00;;
54983;SDS011;40884;53.562;9.940;2023-02-28T02:02:55;4.17;;;2.10;;
54983;SDS011;40884;53.562;9.940;2023-02-28T02:03:58;4.07;;;1.80;;
54983;SDS011;40884;53.562;9.940;2023-02-28T02:05:03;4.40;;;2.40;;
54983;SDS011;40884;53.562;9.940;2023-02-28T02:06:04;4.55;;;2.00;;
54983;SDS011;40884;53.562;9.940;2023-02-28T02:07:04;4.47;;;2.10;;
54983;SDS011;40884;53.562;9.940;2023-02-28T02:08:05;5.80;;;2.37;;
54983;SDS011;40884;53.562;9.940;2023-02-28T02:09:06;5.40;;;2.20;;
54983;SDS011;40884;53.562;9.940;2023-02-28T02:11:07;5.33;;;2.50;;
54983;SDS011;40884;53.562;9.940;2023-02-28T02:12:20;5.22;;;2.20;;
54983;SDS011;40884;53.562;9.940;2023-02-28T02:13:47;4.68;;;2.30;;
54983;SDS011;40884;53.562;9.940;2023-02-28T02:15:00;5.20;;;2.55;;
54983;SDS011;40884;53.562;9.940;2023-02-28T02:17:25;5.05;;;2.65;;
54983;SDS011;40884;53.562;9.940;2023-02-28T02:18:37;5.65;;;2.90;;
54983;SDS011;40884;53.562;9.940;2023-02-28T02:27:39;9.50;;;4.47;;
54983;SDS011;40884;53.562;9.940;2023-02-28T02:30:14;10.18;;;4.88;;
54983;SDS011;40884;53.562;9.940;2023-02-28T02:31:24;10.70;;;5.10;;
54983;SDS011;40884;53.562;9.940;2023-02-28T02:34:01;11.77;;;5.68;;
54983;SDS011;40884;53.562;9.940;2023-02-28T02:37:25;14.63;;;7.20;;
54983;SDS011;40884;53.562;9.940;2023-02-28T02:38:47;11.00;;;6.45;;
54983;SDS011;40884;53.562;9.940;2023-02-28T02:39:51;12.48;;;6.93;;
54983;SDS011;40884;53.562;9.940;2023-02-28T02:40:59;12.93;;;6.47;;
54983;SDS011;40884;53.562;9.940;2023-02-28T02:42:02;13.77;;;6.47;;
54983;SDS011;40884;53.562;9.940;2023-02-28T02:43:11;12.35;;;6.35;;
54983;SDS011;40884;53.562;9.940;2023-02-28T02:44:15;11.98;;;6.35;;
54983;SDS011;40884;53.562;9.940;2023-02-28T02:46:33;10.67;;;6.37;;
54983;SDS011;40884;53.562;9.940;2023-02-28T02:47:35;10.98;;;6.65;;
54983;SDS011;40884;53.562;9.940;2023-02-28T02:48:37;15.18;;;6.45;;
54983;SDS011;40884;53.562;9.940;2023-02-28T02:49:38;14.02;;;6.25;;
54983;SDS011;40884;53.562;9.940;2023-02-28T02:50:44;14.40;;;6.68;;
54983;SDS011;40884;53.562;9.940;2023-02-28T02:51:46;13.13;;;6.68;;
54983;SDS011;40884;53.562;9.940;2023-02-28T02:52:48;10.63;;;6.28;;
54983;SDS011;40884;53.562;9.940;2023-02-28T02:53:51;10.80;;;5.47;;
54983;SDS011;40884;53.562;9.940;2023-02-28T02:54:54;8.27;;;4.95;;
54983;SDS011;40884;53.562;9.940;2023-02-28T02:55:55;10.43;;;5.88;;
54983;SDS011;40884;53.562;9.940;2023-02-28T02:57:00;9.95;;;4.95;;
54983;SDS011;40884;53.562;9.940;2023-02-28T02:58:03;7.65;;;4.85;;
54983;SDS011;40884;53.562;9.940;2023-02-28T02:59:05;8.77;;;4.80;;
54983;SDS011;40884;53.562;9.940;2023-02-28T03:00:07;9.85;;;4.57;;
54983;SDS011;40884;53.562;9.940;2023-02-28T03:01:10;9.13;;;4.07;;
54983;SDS011;40884;53.562;9.940;2023-02-28T03:02:12;7.25;;;4.28;;
54983;SDS011;40884;53.562;9.940;2023-02-28T03:03:13;6.72;;;3.72;;
54983;SDS011;40884;53.562;9.940;2023-02-28T03:04:18;6.47;;;3.87;;
54983;SDS011;40884;53.562;9.940;2023-02-28T03:05:42;7.22;;;3.88;;
54983;SDS011;40884;53.562;9.940;2023-02-28T03:06:39;6.22;;;4.00;;
54983;SDS011;40884;53.562;9.940;2023-02-28T03:07:39;7.90;;;4.50;;
54983;SDS011;40884;53.562;9.940;2023-02-28T03:08:39;10.43;;;5.80;;
54983;SDS011;40884;53.562;9.940;2023-02-28T03:09:39;14.00;;;7.27;;
54983;SDS011;40884;53.562;9.940;2023-02-28T03:10:41;17.87;;;9.27;;
54983;SDS011;40884;53.562;9.940;2023-02-28T03:11:42;19.50;;;9.60;;
54983;SDS011;40884;53.562;9.940;2023-02-28T03:12:46;16.27;;;9.30;;
54983;SDS011;40884;53.562;9.940;2023-02-28T03:14:55;20.13;;;10.50;;
54983;SDS011;40884;53.562;9.940;2023-02-28T03:16:09;24.65;;;12.32;;
54983;SDS011;40884;53.562;9.940;2023-02-28T03:18:15;21.60;;;11.47;;
54983;SDS011;40884;53.562;9.940;2023-02-28T03:19:27;19.60;;;10.85;;
54983;SDS011;40884;53.562;9.940;2023-02-28T03:20:40;22.23;;;11.48;;
54983;SDS011;40884;53.562;9.940;2023-02-28T03:21:48;20.00;;;11.35;;
54983;SDS011;40884;53.562;9.940;2023-02-28T03:22:52;23.27;;;11.20;;
54983;SDS011;40884;53.562;9.940;2023-02-28T03:23:56;18.45;;;10.35;;
54983;SDS011;40884;53.562;9.940;2023-02-28T03:26:04;17.90;;;11.00;;
54983;SDS011;40884;53.562;9.940;2023-02-28T03:27:12;21.35;;;11.35;;
54983;SDS011;40884;53.562;9.940;2023-02-28T03:29:35;20.80;;;10.65;;
54983;SDS011;40884;53.562;9.940;2023-02-28T03:30:51;20.42;;;9.45;;
54983;SDS011;40884;53.562;9.940;2023-02-28T03:32:00;16.30;;;8.65;;
54983;SDS011;40884;53.562;9.940;2023-02-28T03:33:04;13.85;;;7.65;;
54983;SDS011;40884;53.562;9.940;2023-02-28T03:35:10;14.50;;;7.17;;
54983;SDS011;40884;53.562;9.940;2023-02-28T03:36:13;14.43;;;7.47;;
54983;SDS011;40884;53.562;9.940;2023-02-28T03:37:16;13.73;;;7.45;;
54983;SDS011;40884;53.562;9.940;2023-02-28T03:38:22;14.80;;;8.27;;
54983;SDS011;40884;53.562;9.940;2023-02-28T03:39:26;14.52;;;8.27;;
54983;SDS011;40884;53.562;9.940;2023-02-28T03:40:29;17.65;;;8.05;;
54983;SDS011;40884;53.562;9.940;2023-02-28T03:41:35;15.73;;;8.23;;
54983;SDS011;40884;53.562;9.940;2023-02-28T03:42:36;16.45;;;8.52;;
54983;SDS011;40884;53.562;9.940;2023-02-28T03:43:38;16.40;;;7.47;;
54983;SDS011;40884;53.562;9.940;2023-02-28T03:44:41;16.42;;;8.18;;
54983;SDS011;40884;53.562;9.940;2023-02-28T03:45:42;15.23;;;7.97;;
54983;SDS011;40884;53.562;9.940;2023-02-28T03:48:17;16.70;;;8.75;;
54983;SDS011;40884;53.562;9.940;2023-02-28T03:49:20;16.27;;;8.15;;
54983;SDS011;40884;53.562;9.940;2023-02-28T03:50:23;16.05;;;8.95;;
54983;SDS011;40884;53.562;9.940;2023-02-28T03:51:24;15.10;;;8.23;;
54983;SDS011;40884;53.562;9.940;2023-02-28T03:52:28;13.20;;;7.57;;
54983;SDS011;40884;53.562;9.940;2023-02-28T03:54:04;15.23;;;7.60;;
54983;SDS011;40884;53.562;9.940;2023-02-28T03:54:58;12.00;;;6.93;;
54983;SDS011;40884;53.562;9.940;2023-02-28T03:56:03;12.75;;;6.90;;
54983;SDS011;40884;53.562;9.940;2023-02-28T03:57:11;11.38;;;6.85;;
54983;SDS011;40884;53.562;9.940;2023-02-28T03:58:15;13.68;;;6.82;;
54983;SDS011;40884;53.562;9.940;2023-02-28T04:00:35;11.23;;;5.68;;
54983;SDS011;40884;53.562;9.940;2023-02-28T04:01:38;7.53;;;4.70;;
54983;SDS011;40884;53.562;9.940;2023-02-28T04:02:39;9.23;;;4.75;;
54983;SDS011;40884;53.562;9.940;2023-02-28T04:03:39;7.93;;;4.23;;
54983;SDS011;40884;53.562;9.940;2023-02-28T04:04:39;8.07;;;4.63;;
54983;SDS011;40884;53.562;9.940;2023-02-28T04:05:45;9.60;;;4.40;;
54983;SDS011;40884;53.562;9.940;2023-02-28T04:06:46;10.15;;;4.50;;
54983;SDS011;40884;53.562;9.940;2023-02-28T04:07:49;6.30;;;4.00;;
54983;SDS011;40884;53.562;9.940;2023-02-28T04:08:49;7.53;;;4.43;;
54983;SDS011;40884;53.562;9.940;2023-02-28T04:09:49;7.87;;;4.40;;
54983;SDS011;40884;53.562;9.940;2023-02-28T04:10:57;7.03;;;4.20;;
54983;SDS011;40884;53.562;9.940;2023-02-28T04:11:59;7.78;;;4.10;;
54983;SDS011;40884;53.562;9.940;2023-02-28T04:12:59;6.80;;;3.73;;
54983;SDS011;40884;53.562;9.940;2023-02-28T04:13:59;8.53;;;4.03;;
54983;SDS011;40884;53.562;9.940;2023-02-28T04:14:59;6.43;;;3.67;;
54983;SDS011;40884;53.562;9.940;2023-02-28T04:15:59;5.43;;;3.70;;
54983;SDS011;40884;53.562;9.940;2023-02-28T04:16:59;5.90;;;3.57;;
54983;SDS011;40884;53.562;9.940;2023-02-28T04:17:59;5.90;;;3.67;;
54983;SDS011;40884;53.562;9.940;2023-02-28T04:19:00;6.20;;;3.80;;
54983;SDS011;40884;53.562;9.940;2023-02-28T04:20:00;7.87;;;3.40;;
54983;SDS011;40884;53.562;9.940;2023-02-28T04:21:00;7.40;;;3.63;;
54983;SDS011;40884;53.562;9.940;2023-02-28T04:22:00;5.40;;;3.37;;
54983;SDS011;40884;53.562;9.940;2023-02-28T04:23:00;4.87;;;3.60;;
54983;SDS011;40884;53.562;9.940;2023-02-28T04:24:00;5.50;;;3.70;;
54983;SDS011;40884;53.562;9.940;2023-02-28T04:25:01;5.43;;;3.93;;
54983;SDS011;40884;53.562;9.940;2023-02-28T04:26:01;7.00;;;4.20;;
54983;SDS011;40884;53.562;9.940;2023-02-28T04:27:01;5.53;;;3.63;;
54983;SDS011;40884;53.562;9.940;2023-02-28T04:28:01;7.63;;;4.20;;
54983;SDS011;40884;53.562;9.940;2023-02-28T04:29:02;7.73;;;4.27;;
54983;SDS011;40884;53.562;9.940;2023-02-28T04:30:03;8.05;;;4.20;;
54983;SDS011;40884;53.562;9.940;2023-02-28T04:31:04;7.57;;;4.23;;
54983;SDS011;40884;53.562;9.940;2023-02-28T04:32:04;7.75;;;4.43;;
54983;SDS011;40884;53.562;9.940;2023-02-28T04:33:05;5.80;;;3.97;;
54983;SDS011;40884;53.562;9.940;2023-02-28T04:34:05;6.17;;;4.17;;
54983;SDS011;40884;53.562;9.940;2023-02-28T04:35:05;6.43;;;3.93;;
54983;SDS011;40884;53.562;9.940;2023-02-28T04:36:06;7.93;;;4.27;;
54983;SDS011;40884;53.562;9.940;2023-02-28T04:37:07;9.02;;;4.38;;
54983;SDS011;40884;53.562;9.940;2023-02-28T04:38:07;5.27;;;3.60;;
54983;SDS011;40884;53.562;9.940;2023-02-28T04:39:07;7.67;;;4.17;;
54983;SDS011;40884;53.562;9.940;2023-02-28T04:40:08;5.60;;;4.03;;
54983;SDS011;40884;53.562;9.940;2023-02-28T04:41:08;9.20;;;4.67;;
54983;SDS011;40884;53.562;9.940;2023-02-28T04:42:08;8.07;;;4.10;;
54983;SDS011;40884;53.562;9.940;2023-02-28T04:43:09;6.33;;;4.47;;
54983;SDS011;40884;53.562;9.940;2023-02-28T04:44:09;6.60;;;4.10;;
54983;SDS011;40884;53.562;9.940;2023-02-28T04:45:09;6.63;;;4.47;;
54983;SDS011;40884;53.562;9.940;2023-02-28T04:46:09;6.53;;;4.13;;
54983;SDS011;40884;53.562;9.940;2023-02-28T04:47:10;6.77;;;4.23;;
54983;SDS011;40884;53.562;9.940;2023-02-28T04:48:10;6.53;;;3.90;;
54983;SDS011;40884;53.562;9.940;2023-02-28T04:49:11;6.23;;;4.30;;
54983;SDS011;40884;53.562;9.940;2023-02-28T04:50:11;6.10;;;4.13;;
54983;SDS011;40884;53.562;9.940;2023-02-28T04:51:13;7.17;;;4.20;;
54983;SDS011;40884;53.562;9.940;2023-02-28T04:52:13;8.27;;;3.92;;
54983;SDS011;40884;53.562;9.940;2023-02-28T04:53:13;6.87;;;4.20;;
54983;SDS011;40884;53.562;9.940;2023-02-28T04:54:13;7.23;;;4.57;;
54983;SDS011;40884;53.562;9.940;2023-02-28T04:55:14;8.20;;;4.50;;
54983;SDS011;40884;53.562;9.940;2023-02-28T04:56:15;7.80;;;4.53;;
54983;SDS011;40884;53.562;9.940;2023-02-28T04:57:15;8.38;;;3.95;;
54983;SDS011;40884;53.562;9.940;2023-02-28T04:58:17;8.13;;;4.40;;
54983;SDS011;40884;53.562;9.940;2023-02-28T04:59:17;5.83;;;3.77;;
54983;SDS011;40884;53.562;9.940;2023-02-28T05:00:17;6.27;;;4.20;;
54983;SDS011;40884;53.562;9.940;2023-02-28T05:01:19;6.27;;;4.77;;
54983;SDS011;40884;53.562;9.940;2023-02-28T05:02:19;8.98;;;4.45;;
54983;SDS011;40884;53.562;9.940;2023-02-28T05:03:20;11.10;;;4.67;;
54983;SDS011;40884;53.562;9.940;2023-02-28T05:04:23;6.50;;;4.00;;
54983;SDS011;40884;53.562;9.940;2023-02-28T05:05:23;7.27;;;4.37;;
54983;SDS011;40884;53.562;9.940;2023-02-28T05:06:24;6.80;;;4.50;;
54983;SDS011;40884;53.562;9.940;2023-02-28T05:07:25;5.45;;;4.20;;
54983;SDS011;40884;53.562;9.940;2023-02-28T05:08:25;7.40;;;4.30;;
54983;SDS011;40884;53.562;9.940;2023-02-28T05:09:25;6.67;;;4.40;;
54983;SDS011;40884;53.562;9.940;2023-02-28T05:10:25;5.97;;;4.30;;
54983;SDS011;40884;53.562;9.940;2023-02-28T05:11:26;6.37;;;4.20;;
54983;SDS011;40884;53.562;9.940;2023-02-28T05:12:27;6.57;;;4.22;;
54983;SDS011;40884;53.562;9.940;2023-02-28T05:13:27;6.40;;;4.00;;
54983;SDS011;40884;53.562;9.940;2023-02-28T05:14:27;8.23;;;4.50;;
54983;SDS011;40884;53.562;9.940;2023-02-28T05:15:27;7.93;;;4.03;;
54983;SDS011;40884;53.562;9.940;2023-02-28T05:16:28;7.10;;;4.47;;
54983;SDS011;40884;53.562;9.940;2023-02-28T05:17:28;7.20;;;4.50;;
54983;SDS011;40884;53.562;9.940;2023-02-28T05:18:28;6.03;;;4.40;;
54983;SDS011;40884;53.562;9.940;2023-02-28T05:19:28;6.57;;;4.87;;
54983;SDS011;40884;53.562;9.940;2023-02-28T05:20:28;9.13;;;4.90;;
54983;SDS011;40884;53.562;9.940;2023-02-28T05:21:30;8.70;;;4.70;;
54983;SDS011;40884;53.562;9.940;2023-02-28T05:22:30;6.90;;;4.50;;
54983;SDS011;40884;53.562;9.940;2023-02-28T05:23:30;8.37;;;4.80;;
54983;SDS011;40884;53.562;9.940;2023-02-28T05:24:30;6.93;;;4.90;;
54983;SDS011;40884;53.562;9.940;2023-02-28T05:25:31;7.33;;;4.23;;
54983;SDS011;40884;53.562;9.940;2023-02-28T05:26:33;10.53;;;4.67;;
54983;SDS011;40884;53.562;9.940;2023-02-28T05:27:34;10.70;;;5.15;;
54983;SDS011;40884;53.562;9.940;2023-02-28T05:28:34;8.50;;;4.73;;
54983;SDS011;40884;53.562;9.940;2023-02-28T05:29:34;6.17;;;4.43;;
54983;SDS011;40884;53.562;9.940;2023-02-28T05:30:34;6.63;;;4.97;;
54983;SDS011;40884;53.562;9.940;2023-02-28T05:31:34;7.70;;;4.60;;
54983;SDS011;40884;53.562;9.940;2023-02-28T05:32:34;6.87;;;4.23;;
54983;SDS011;40884;53.562;9.940;2023-02-28T05:33:35;10.83;;;4.80;;
54983;SDS011;40884;53.562;9.940;2023-02-28T05:34:35;8.60;;;5.00;;
54983;SDS011;40884;53.562;9.940;2023-02-28T05:35:37;7.10;;;4.70;;
54983;SDS011;40884;53.562;9.940;2023-02-28T05:36:38;7.82;;;4.78;;
54983;SDS011;40884;53.562;9.940;2023-02-28T05:37:38;7.90;;;5.17;;
54983;SDS011;40884;53.562;9.940;2023-02-28T05:38:38;6.23;;;4.70;;
54983;SDS011;40884;53.562;9.940;2023-02-28T05:39:39;9.00;;;5.20;;
54983;SDS011;40884;53.562;9.940;2023-02-28T05:40:39;7.43;;;4.83;;
54983;SDS011;40884;53.562;9.940;2023-02-28T05:41:42;8.93;;;5.37;;
54983;SDS011;40884;53.562;9.940;2023-02-28T05:42:42;9.85;;;5.70;;
54983;SDS011;40884;53.562;9.940;2023-02-28T05:43:43;8.10;;;5.60;;
54983;SDS011;40884;53.562;9.940;2023-02-28T05:44:43;7.47;;;5.33;;
54983;SDS011;40884;53.562;9.940;2023-02-28T05:45:43;11.00;;;5.43;;
54983;SDS011;40884;53.562;9.940;2023-02-28T05:46:43;6.97;;;5.00;;
54983;SDS011;40884;53.562;9.940;2023-02-28T05:47:43;9.27;;;5.10;;
54983;SDS011;40884;53.562;9.940;2023-02-28T05:48:45;7.47;;;5.10;;
54983;SDS011;40884;53.562;9.940;2023-02-28T05:49:46;7.68;;;5.28;;
54983;SDS011;40884;53.562;9.940;2023-02-28T05:50:46;9.13;;;5.20;;
54983;SDS011;40884;53.562;9.940;2023-02-28T05:51:46;9.47;;;5.57;;
54983;SDS011;40884;53.562;9.940;2023-02-28T05:52:52;10.00;;;5.40;;
54983;SDS011;40884;53.562;9.940;2023-02-28T05:53:52;10.70;;;5.00;;
54983;SDS011;40884;53.562;9.940;2023-02-28T05:54:52;9.97;;;5.53;;
54983;SDS011;40884;53.562;9.940;2023-02-28T05:55:52;12.17;;;5.67;;
54983;SDS011;40884;53.562;9.940;2023-02-28T05:56:52;11.07;;;5.97;;
54983;SDS011;40884;53.562;9.940;2023-02-28T05:57:52;9.10;;;5.60;;
54983;SDS011;40884;53.562;9.940;2023-02-28T05:58:53;14.87;;;8.00;;
54983;SDS011;40884;53.562;9.940;2023-02-28T05:59:53;21.43;;;8.53;;
54983;SDS011;40884;53.562;9.940;2023-02-28T06:00:53;21.17;;;9.40;;
54983;SDS011;40884;53.562;9.940;2023-02-28T06:01:53;15.77;;;7.67;;
54983;SDS011;40884;53.562;9.940;2023-02-28T06:02:53;12.33;;;6.70;;
54983;SDS011;40884;53.562;9.940;2023-02-28T06:03:53;10.40;;;6.20;;
54983;SDS011;40884;53.562;9.940;2023-02-28T06:04:53;9.43;;;6.30;;
54983;SDS011;40884;53.562;9.940;2023-02-28T06:05:53;13.17;;;6.00;;
54983;SDS011;40884;53.562;9.940;2023-02-28T06:06:54;9.10;;;5.40;;
54983;SDS011;40884;53.562;9.940;2023-02-28T06:07:54;9.47;;;5.73;;
54983;SDS011;40884;53.562;9.940;2023-02-28T06:08:54;10.63;;;5.20;;
54983;SDS011;40884;53.562;9.940;2023-02-28T06:09:54;11.47;;;5.43;;
54983;SDS011;40884;53.562;9.940;2023-02-28T06:10:54;14.37;;;5.80;;
54983;SDS011;40884;53.562;9.940;2023-02-28T06:11:54;11.33;;;5.70;;
54983;SDS011;40884;53.562;9.940;2023-02-28T06:12:59;10.80;;;5.10;;
54983;SDS011;40884;53.562;9.940;2023-02-28T06:13:59;11.90;;;5.75;;
54983;SDS011;40884;53.562;9.940;2023-02-28T06:15:00;9.63;;;5.60;;
54983;SDS011;40884;53.562;9.940;2023-02-28T06:16:00;12.33;;;6.30;;
54983;SDS011;40884;53.562;9.940;2023-02-28T06:17:00;12.27;;;5.87;;
54983;SDS011;40884;53.562;9.940;2023-02-28T06:18:01;11.90;;;5.50;;
54983;SDS011;40884;53.562;9.940;2023-02-28T06:19:02;12.00;;;6.10;;
54983;SDS011;40884;53.562;9.940;2023-02-28T06:20:03;15.00;;;5.78;;
54983;SDS011;40884;53.562;9.940;2023-02-28T06:21:03;11.53;;;5.90;;
54983;SDS011;40884;53.562;9.940;2023-02-28T06:22:03;12.23;;;5.43;;
54983;SDS011;40884;53.562;9.940;2023-02-28T06:23:03;12.07;;;5.80;;
54983;SDS011;40884;53.562;9.940;2023-02-28T06:24:03;9.67;;;5.57;;
54983;SDS011;40884;53.562;9.940;2023-02-28T06:25:04;12.23;;;5.50;;
54983;SDS011;40884;53.562;9.940;2023-02-28T06:26:04;10.00;;;5.50;;
54983;SDS011;40884;53.562;9.940;2023-02-28T06:27:05;10.73;;;5.50;;
54983;SDS011;40884;53.562;9.940;2023-02-28T06:28:05;9.30;;;5.30;;
54983;SDS011;40884;53.562;9.940;2023-02-28T06:29:05;13.03;;;5.47;;
54983;SDS011;40884;53.562;9.940;2023-02-28T06:30:06;12.27;;;5.77;;
54983;SDS011;40884;53.562;9.940;2023-02-28T06:31:07;10.45;;;5.53;;
54983;SDS011;40884;53.562;9.940;2023-02-28T06:32:07;12.87;;;5.67;;
54983;SDS011;40884;53.562;9.940;2023-02-28T06:33:07;10.03;;;5.43;;
54983;SDS011;40884;53.562;9.940;2023-02-28T06:34:07;10.13;;;5.93;;
54983;SDS011;40884;53.562;9.940;2023-02-28T06:35:08;10.70;;;5.73;;
54983;SDS011;40884;53.562;9.940;2023-02-28T06:36:09;14.23;;;5.93;;